Terminal Aerodrome Forecast
Issued by NWS Pocatello, ID

Home | Current Version | Previous Version | Text Only | Print | Product List | Glossary On
Versions: 1 2 3 4 5 6 7 8 9 10 11 12 13 14
670
FTUS45 KPIH 191727
TAFPIH
TAF
KPIH 191727Z 1918/2018 24012G22KT P6SM FEW150
     FM200300 19009KT P6SM SKC
     FM200900 VRB05KT P6SM SKC
     FM201700 24011KT P6SM SKC=

USA.gov is the U.S. government's official web portal to all federal, state and local government web resources and services.